createdAt,value
2023-03-25T00:03:17.829Z,0.80
2023-03-25T00:08:19.825Z,0.80
2023-03-25T00:13:22.192Z,0.90
2023-03-25T00:18:26.867Z,1.40
2023-03-25T00:23:30.380Z,1.10
2023-03-25T00:28:34.681Z,1.17
2023-03-25T00:33:37.032Z,1.13
2023-03-25T00:38:41.983Z,1.17
2023-03-25T00:43:45.525Z,1.73
2023-03-25T00:48:47.847Z,1.27
2023-03-25T00:53:55.716Z,1.53
2023-03-25T00:58:58.202Z,1.30
2023-03-25T01:04:01.611Z,1.17
2023-03-25T01:09:07.058Z,1.10
2023-03-25T01:14:13.568Z,0.90
2023-03-25T01:19:15.983Z,1.60
2023-03-25T01:24:18.751Z,1.80
2023-03-25T01:29:21.375Z,1.60
2023-03-25T01:34:24.238Z,1.50
2023-03-25T01:39:27.710Z,1.13
2023-03-25T01:44:29.733Z,1.10
2023-03-25T01:49:39.288Z,1.70
2023-03-25T01:54:43.239Z,1.33
2023-03-25T01:59:45.702Z,1.30
2023-03-25T02:05:14.148Z,1.50
2023-03-25T02:10:17.402Z,1.73
2023-03-25T02:15:20.658Z,2.43
2023-03-25T02:20:44.259Z,1.57
2023-03-25T02:26:05.456Z,1.60
2023-03-25T02:31:25.443Z,1.17
2023-03-25T02:36:52.475Z,0.90
2023-03-25T02:42:18.097Z,1.20
2023-03-25T02:47:24.195Z,1.40
2023-03-25T02:52:27.238Z,1.37
2023-03-25T02:57:34.777Z,1.40
2023-03-25T03:02:37.578Z,1.37
2023-03-25T03:07:45.695Z,1.40
2023-03-25T03:12:53.754Z,1.83
2023-03-25T03:18:17.935Z,1.50
2023-03-25T03:23:29.672Z,1.50
2023-03-25T03:28:47.271Z,1.63
2023-03-25T03:33:55.406Z,2.83
2023-03-25T03:39:10.379Z,1.53
2023-03-25T03:44:15.712Z,1.40
2023-03-25T03:49:22.089Z,2.03
2023-03-25T03:54:32.159Z,1.83
2023-03-25T03:59:48.949Z,1.80
2023-03-25T04:04:53.907Z,2.63
2023-03-25T04:10:03.414Z,1.67
2023-03-25T04:15:06.894Z,2.33
2023-03-25T04:20:13.566Z,1.57
2023-03-25T04:25:15.659Z,1.43
2023-03-25T04:30:18.043Z,1.60
2023-03-25T04:35:20.748Z,1.47
2023-03-25T04:40:25.642Z,1.90
2023-03-25T04:45:28.814Z,1.67
2023-03-25T04:50:31.764Z,2.37
2023-03-25T04:55:34.638Z,2.40
2023-03-25T05:00:36.513Z,2.27
2023-03-25T05:05:39.129Z,1.50
2023-03-25T05:10:43.167Z,2.90
2023-03-25T05:15:45.086Z,1.43
2023-03-25T05:20:50.832Z,1.57
2023-03-25T05:25:53.183Z,1.93
2023-03-25T05:30:55.401Z,1.57
2023-03-25T05:35:57.544Z,2.07
2023-03-25T05:41:00.342Z,2.53
2023-03-25T05:46:04.831Z,1.90
2023-03-25T05:51:18.434Z,1.67
2023-03-25T05:56:23.118Z,1.67
2023-03-25T06:01:33.318Z,2.00
2023-03-25T06:06:35.957Z,2.43
2023-03-25T06:11:38.469Z,1.70
2023-03-25T06:16:40.986Z,2.40
2023-03-25T06:21:43.551Z,2.10
2023-03-25T06:26:45.421Z,2.90
2023-03-25T06:31:47.520Z,2.10
2023-03-25T06:36:50.096Z,2.67
2023-03-25T06:41:52.212Z,2.10
2023-03-25T06:47:02.526Z,1.97
2023-03-25T06:52:24.156Z,2.13
2023-03-25T06:57:26.228Z,2.07
2023-03-25T07:02:28.348Z,2.10
2023-03-25T07:07:30.793Z,2.13
2023-03-25T07:12:34.496Z,2.07
2023-03-25T07:17:36.470Z,2.37
2023-03-25T07:22:38.637Z,2.13
2023-03-25T07:27:40.907Z,2.20
2023-03-25T07:32:50.750Z,3.17
2023-03-25T07:37:52.893Z,1.93
2023-03-25T07:42:54.884Z,2.30
2023-03-25T07:48:01.434Z,2.20
2023-03-25T07:53:04.048Z,2.23
2023-03-25T07:58:06.383Z,2.37
2023-03-25T08:03:11.534Z,2.50
2023-03-25T08:08:15.197Z,2.60
2023-03-25T08:13:17.392Z,2.67
2023-03-25T08:18:20.721Z,2.20
2023-03-25T08:23:23.421Z,2.50
2023-03-25T08:28:27.213Z,3.27
2023-03-25T08:33:39.502Z,3.20
2023-03-25T08:38:42.099Z,2.97
2023-03-25T08:43:45.207Z,3.70
2023-03-25T08:48:50.302Z,3.70
2023-03-25T08:53:52.420Z,3.00
2023-03-25T08:58:56.436Z,3.45
2023-03-25T09:03:58.596Z,2.60
2023-03-25T09:09:00.692Z,3.10
2023-03-25T09:14:03.943Z,2.97
2023-03-25T09:19:05.954Z,3.20
2023-03-25T09:24:09.223Z,2.97
2023-03-25T09:29:11.230Z,3.10
2023-03-25T09:34:15.726Z,3.20
2023-03-25T09:39:18.319Z,3.30
2023-03-25T09:44:50.492Z,4.17
2023-03-25T09:50:00.720Z,2.70
2023-03-25T09:55:08.173Z,4.03
2023-03-25T10:00:17.869Z,3.47
2023-03-25T10:05:29.941Z,2.60
2023-03-25T10:10:55.585Z,3.25
2023-03-25T10:16:21.674Z,3.10
2023-03-25T10:21:33.625Z,3.43
2023-03-25T10:26:44.671Z,3.30
2023-03-25T10:31:54.612Z,4.00
2023-03-25T10:37:00.231Z,3.20
2023-03-25T10:42:29.885Z,3.50
2023-03-25T10:47:36.972Z,2.93
2023-03-25T10:52:39.001Z,3.00
2023-03-25T10:57:41.458Z,3.20
2023-03-25T11:02:43.910Z,2.53
2023-03-25T11:07:56.216Z,3.15
2023-03-25T11:13:03.793Z,2.65
2023-03-25T11:18:08.808Z,2.85
2023-03-25T11:23:32.556Z,2.42
2023-03-25T11:28:50.193Z,3.20
2023-03-25T11:34:10.764Z,2.73
2023-03-25T11:39:28.238Z,2.30
2023-03-25T11:44:32.862Z,2.50
2023-03-25T11:49:38.828Z,2.60
2023-03-25T11:54:42.398Z,2.30
2023-03-25T11:59:49.795Z,2.63
2023-03-25T12:05:02.810Z,1.80
2023-03-25T12:10:06.628Z,2.77
2023-03-25T12:15:11.655Z,2.33
2023-03-25T12:20:25.784Z,2.13
2023-03-25T12:25:43.078Z,2.63
2023-03-25T12:30:45.101Z,2.80
2023-03-25T12:36:23.763Z,3.17
2023-03-25T12:41:33.566Z,2.65
2023-03-25T12:47:08.360Z,2.53
2023-03-25T12:52:22.410Z,2.70
2023-03-25T12:57:55.846Z,2.90
2023-03-25T13:03:22.630Z,2.85
2023-03-25T13:08:28.284Z,2.70
2023-03-25T13:13:33.607Z,2.67
2023-03-25T13:18:42.788Z,2.72
2023-03-25T13:23:52.515Z,2.97
2023-03-25T13:28:59.872Z,2.88
2023-03-25T13:34:27.844Z,2.90
2023-03-25T13:39:45.096Z,2.95
2023-03-25T13:44:50.585Z,3.00
2023-03-25T13:49:58.288Z,2.65
2023-03-25T13:55:21.653Z,2.33
2023-03-25T14:00:47.576Z,2.95
2023-03-25T14:06:09.816Z,2.25
2023-03-25T14:11:17.717Z,2.35
2023-03-25T14:16:25.612Z,2.10
2023-03-25T14:21:36.894Z,2.05
2023-03-25T14:26:46.785Z,2.40
2023-03-25T14:32:37.686Z,2.30
2023-03-25T14:37:39.771Z,2.63
2023-03-25T14:42:57.423Z,2.15
2023-03-25T14:48:00.804Z,2.15
2023-03-25T14:53:12.731Z,2.40
2023-03-25T14:58:23.717Z,2.33
2023-03-25T15:03:35.128Z,2.10
2023-03-25T15:08:40.937Z,2.07
2023-03-25T15:13:47.593Z,2.38
2023-03-25T15:18:49.829Z,2.63
2023-03-25T15:24:03.694Z,2.30
2023-03-25T15:29:24.416Z,2.27
2023-03-25T15:35:03.666Z,2.20
2023-03-25T15:40:08.882Z,3.03
2023-03-25T15:45:52.311Z,2.53
2023-03-25T15:51:32.301Z,2.50
2023-03-25T15:56:41.760Z,2.60
2023-03-25T16:01:48.308Z,2.63
2023-03-25T16:06:54.242Z,2.47
2023-03-25T16:12:01.652Z,1.83
2023-03-25T16:17:07.910Z,2.57
2023-03-25T16:22:26.133Z,3.73
2023-03-25T16:27:36.694Z,2.50
2023-03-25T16:32:38.817Z,2.57
2023-03-25T16:37:40.862Z,3.10
2023-03-25T16:42:43.099Z,2.80
2023-03-25T16:47:46.933Z,2.37
2023-03-25T16:52:51.054Z,3.00
2023-03-25T16:57:53.599Z,3.20
2023-03-25T17:02:57.032Z,3.00
2023-03-25T17:08:04.877Z,3.93
2023-03-25T17:13:09.731Z,2.53
2023-03-25T17:18:16.587Z,3.07
2023-03-25T17:23:43.313Z,3.53
2023-03-25T17:28:51.595Z,3.60
2023-03-25T17:34:18.911Z,3.33
2023-03-25T17:39:27.842Z,3.13
2023-03-25T17:44:42.784Z,3.17
2023-03-25T17:49:44.754Z,3.77
2023-03-25T17:54:46.988Z,4.43
2023-03-25T17:59:49.070Z,4.10
2023-03-25T18:04:51.629Z,3.40
2023-03-25T18:09:54.526Z,3.40
2023-03-25T18:14:56.584Z,3.63
2023-03-25T18:19:58.567Z,3.40
2023-03-25T18:25:01.630Z,3.83
2023-03-25T18:30:29.509Z,3.33
2023-03-25T18:35:31.468Z,4.00
2023-03-25T18:40:35.997Z,5.80
2023-03-25T18:45:38.045Z,4.30
2023-03-25T18:50:46.225Z,3.33
2023-03-25T18:55:49.883Z,3.80
2023-03-25T19:00:53.193Z,4.17
2023-03-25T19:05:55.381Z,3.53
2023-03-25T19:11:04.601Z,3.90
2023-03-25T19:16:10.735Z,4.27
2023-03-25T19:21:20.278Z,5.17
2023-03-25T19:26:22.752Z,4.83
2023-03-25T19:31:25.956Z,3.93
2023-03-25T19:36:28.080Z,5.60
2023-03-25T19:41:30.190Z,3.80
2023-03-25T19:46:33.720Z,5.03
2023-03-25T19:51:35.849Z,3.93
2023-03-25T19:56:38.191Z,3.17
2023-03-25T20:01:43.146Z,4.23
2023-03-25T20:06:45.402Z,4.13
2023-03-25T20:11:47.787Z,3.33
2023-03-25T20:16:49.744Z,3.93
2023-03-25T20:21:51.848Z,5.43
2023-03-25T20:26:53.763Z,4.30
2023-03-25T20:31:57.788Z,3.97
2023-03-25T20:37:01.726Z,5.03
2023-03-25T20:42:04.660Z,4.20
2023-03-25T20:47:06.705Z,4.73
2023-03-25T20:52:09.983Z,4.57
2023-03-25T20:57:12.814Z,5.00
2023-03-25T21:02:18.224Z,3.33
2023-03-25T21:07:22.329Z,3.83
2023-03-25T21:12:32.842Z,4.40
2023-03-25T21:17:43.632Z,3.97
2023-03-25T21:22:45.674Z,3.67
2023-03-25T21:27:47.846Z,4.20
2023-03-25T21:32:49.957Z,3.53
2023-03-25T21:37:52.460Z,3.97
2023-03-25T21:42:54.376Z,4.40
2023-03-25T21:47:56.510Z,4.80
2023-03-25T21:53:03.218Z,5.70
2023-03-25T21:58:05.754Z,4.90
2023-03-25T22:03:12.070Z,4.67
2023-03-25T22:08:14.222Z,4.67
2023-03-25T22:13:16.132Z,3.33
2023-03-25T22:18:18.194Z,3.90
2023-03-25T22:23:21.748Z,4.37
2023-03-25T22:28:23.963Z,4.37
2023-03-25T22:33:26.709Z,5.07
2023-03-25T22:38:28.610Z,4.37
2023-03-25T22:43:30.680Z,4.37
2023-03-25T22:48:33.870Z,4.77
2023-03-25T22:53:35.922Z,3.80
2023-03-25T22:58:38.431Z,4.60
2023-03-25T23:03:41.286Z,4.40
2023-03-25T23:08:44.161Z,4.70
2023-03-25T23:13:50.328Z,4.27
2023-03-25T23:18:53.041Z,4.40
2023-03-25T23:24:00.167Z,3.53
2023-03-25T23:29:05.514Z,4.30
2023-03-25T23:34:10.076Z,4.73
2023-03-25T23:39:16.036Z,3.57
2023-03-25T23:44:18.407Z,3.37
2023-03-25T23:49:20.446Z,3.47
2023-03-25T23:54:22.453Z,3.40
2023-03-25T23:59:24.438Z,2.60
